Aktuální počasí v Česku a ve světě - METAR

Seznam meteostanic umístěných nejčasteji na letišti v ČR a ve světě

Vyhledat místa podle abecedy:
A B C D E F G H I J K L M N O P Q R S T U V W X Y Z

Filtrovat:

ID stanice:
a/nebo
Název místa (fulltext):
 
Místo (ID)Naposledy načteno 
Antwerp (EBAW) 21.09.2020 02:50 UTC Zobrazit METAR
EBAW 210250Z AUTO VRB02KT CAVOK 11/07 Q1017
Apia (NSFA) 21.09.2020 03:00 UTC Zobrazit METAR
NSFA 210300Z VRB03KT SCT023 BKN290 30/25 Q1011
Aruba I (TNCA) 21.09.2020 03:00 UTC Zobrazit METAR
TNCA 210300Z 10005KT 9999 FEW016 27/25 Q1011 NOSIG
Ascension I. (FHAW) 18.09.2020 20:50 UTC Zobrazit METAR
FHAW 182050Z 13011KT 9999 FEW022 23/18 Q1017 NOSIG RMK BLU BLU
Ashgabat (UTAA) 21.09.2020 03:00 UTC Zobrazit METAR
UTAA 210300Z 34004KT 9999 SCT049 BKN099 18/10 Q1019 R88/CLRD70 NOSIG
Asmara (HHAS) 03.02.2015 17:00 UTC Zobrazit METAR
HHAS 031700Z 27004KT CAVOK 15/06 Q1028 NOSIG
Astana (UACC) Zatím nenačteno  
Astrakhan (URWA) Zatím nenačteno  
Asuncion (SGAS) 21.09.2020 01:00 UTC Zobrazit METAR
SGAS 210100Z 19008KT 9999 -RA BKN027 18/06 Q1020
Athens (LGAV) 21.09.2020 02:50 UTC Zobrazit METAR
LGAV 210250Z 01006KT 340V060 CAVOK 20/13 Q1016 NOSIG
Baghdad (ORBS) 06.06.2012 04:00 UTC  
Bagram (KQSA) 11.05.2016 15:58 UTC Zobrazit METAR
KQSA 111558Z VRB06KT 9999 BKN140 21/09 A3000 RMK AO2A SLP070 T02080091 $
Bahrain (OBBI) 21.09.2020 03:00 UTC Zobrazit METAR
OBBI 210300Z 28005KT CAVOK 32/22 Q1003 NOSIG
Baku (UBBB) 20.09.2020 11:00 UTC Zobrazit METAR
UBBB 201100Z 06010KT 9999 BKN038 23/14 Q1016 R88/CLRD// NOSIG
Bamako (GABS) 21.09.2020 03:00 UTC Zobrazit METAR
GABS 210300Z 23005KT 9999 SCT015 SCT020 21/20 Q1014 NOSIG
Bandar Seri Begawan (WBSB) 21.09.2020 03:00 UTC Zobrazit METAR
WBSB 210300Z 34004KT 9999 FEW016 BKN300 31/25 Q1009 NOSIG
Bangkok (VTBD) 21.09.2020 03:00 UTC Zobrazit METAR
VTBD 210300Z 15004KT 080V210 9999 FEW020 SCT030 30/26 Q1011 NOSIG
Bangui (FEFF) 21.09.2020 03:00 UTC Zobrazit METAR
FEFF 210300Z 00000KT 6000 FEW033 24/22 Q1011 NOSIG
Banja Luka (LQBK) 21.09.2020 03:00 UTC Zobrazit METAR
LQBK 210300Z 17002KT CAVOK 10/09 Q1017 NOSIG
Banjul (GBYD) 21.09.2020 03:00 UTC Zobrazit METAR
GBYD 210300Z 00000KT 9999 FEW010 SCT110 24/23 Q1012
Barbados (TBPB) 21.09.2020 03:00 UTC Zobrazit METAR
TBPB 210300Z 11007KT 9999 FEW020 28/25 Q1013 NOSIG
Barcelona (LEBL) 21.09.2020 03:00 UTC Zobrazit METAR
LEBL 210300Z 33007KT 9999 FEW025 21/17 Q1015 NOSIG
Bari (LIBD) 21.09.2020 02:50 UTC Zobrazit METAR
LIBD 210250Z 21003KT CAVOK 19/17 Q1015
Basle-Mulhouse (LFSB) 21.09.2020 03:00 UTC Zobrazit METAR
LFSB 210300Z AUTO 24002KT 9999 FEW033 11/09 Q1015 NOSIG
Basse-Terre (TFFB) Zatím nenačteno  
Basseterre (TKPK) 20.09.2020 20:00 UTC Zobrazit METAR
TKPK 202000Z 21008KT 9999 FEW022 30/25 Q1011
Beijing (ZBAA) Zatím nenačteno  
Beirut (OLBA) 21.09.2020 03:00 UTC Zobrazit METAR
OLBA 210300Z 11003KT 8000 FEW026 27/19 Q1010 NOSIG
Belfast (EGAA) 21.09.2020 01:50 UTC Zobrazit METAR
EGAA 210150Z 07004KT 2500 BR MIFG PRFG NSC 05/04 Q1018
Belgrade (LYBE) 21.09.2020 03:00 UTC Zobrazit METAR
LYBE 210300Z 10003KT 360V120 CAVOK 12/03 Q1018 NOSIG
Belize City (MZBZ) 21.09.2020 00:00 UTC Zobrazit METAR
MZBZ 210000Z 10003KT 9999 FEW022 29/25 A2995 Q1010 NOSIG
Bergen (ENBR) 20.09.2020 08:50 UTC Zobrazit METAR
ENBR 200850Z 15008KT 9999 VCSH FEW007 SCT009 BKN012 11/10 Q1023 BECMG 24010KT TEMPO BKN009 RMK WIND 1200FT 17014KT
Berlin (EDDT) 21.09.2020 02:50 UTC Zobrazit METAR
EDDT 210250Z VRB02KT CAVOK 10/06 Q1019 NOSIG
Bermuda Is (TXKF) 21.09.2020 02:55 UTC Zobrazit METAR
TXKF 210255Z 06017KT 9999 FEW019 SCT120 OVC300 27/25 Q1006
Bern (LSZB) 21.09.2020 02:50 UTC Zobrazit METAR
LSZB 210250Z AUTO VRB01KT 9999 FEW033 BKN060 14/14 Q1017
Billund (EKBI) 20.09.2020 15:50 UTC Zobrazit METAR
EKBI 201550Z AUTO VRB02KT 9999 OVC007/// 13/12 Q1022
Birmingham (EGBB) 21.09.2020 02:50 UTC Zobrazit METAR
EGBB 210250Z 35002KT CAVOK 10/09 Q1019
Bishkek (UAFM) Zatím nenačteno  
Bissau (GGOV) 20.09.2020 22:00 UTC Zobrazit METAR
GGOV 202200Z VRB02KT 9999 FEW014 24/23 Q1014 NOSIG
Bogota (SKBO) 21.09.2020 03:00 UTC Zobrazit METAR
SKBO 210300Z 30003KT 9999 SCT020 13/10 A3037 NOSIG
Bologna (LIPE) 21.09.2020 02:50 UTC Zobrazit METAR
LIPE 210250Z 22003KT 190V250 CAVOK 18/16 Q1015
Bordeaux (LFBD) 21.09.2020 03:00 UTC Zobrazit METAR
LFBD 210300Z AUTO 21003KT 9999 FEW003 OVC120 18/17 Q1016 TEMPO 2000 BR BKN003
Bornholm (EKRN) 18.09.2020 11:50 UTC Zobrazit METAR
EKRN 181150Z 27010KT CAVOK 16/10 Q1029
Brasilia (SBBR) 21.09.2020 03:00 UTC Zobrazit METAR
SBBR 210300Z 00000KT CAVOK 27/11 Q1017
Bratislava (LZIB) 21.09.2020 03:00 UTC Zobrazit METAR
LZIB 210300Z 03006KT CAVOK 13/08 Q1018
Brazzaville (FCBB) 21.09.2020 03:00 UTC Zobrazit METAR
FCBB 210300Z 23003KT 8000 NSC 21/19 Q1013 NOSIG
Bremen (EDDW) 21.09.2020 02:50 UTC Zobrazit METAR
EDDW 210250Z 05003KT CAVOK 09/08 Q1018
Brest (UMBB) Zatím nenačteno  
Brest (LFRB) 21.09.2020 03:00 UTC Zobrazit METAR
LFRB 210300Z AUTO 34001KT 3600 BR OVC003 16/15 Q1016 TEMPO 0200 FG VV///
Brno (LKTB) 21.09.2020 03:00 UTC Zobrazit METAR
LKTB 210300Z 06007KT CAVOK 12/09 Q1018 NOSIG
Předchozí 1 2 3 4 ... 9 Další
Reklama

Počasí na Váš email

Emaily jsou bez reklamy a bez spamu



Odhlásit newsletter




Další české internetové stránky (nejen) o počasí najdete v katalogu TOPlist - weby o počasí nebo vyhledejte na internetu, co jste tu na 🌞 Slunečnu ⛅ zatím nenašli:
⭐ Přidat Slunečno.cz do oblíbených | 🏠 Nastavit Slunečno.cz jako HOMEPAGE

⬆️ Posunout stránku nahoru ⬆️
Reklama